34NY weather

Hendershot Airport
Hilton, New York, United States

Public forecast

Using degrees Fahrenheit for public forecast. Weather courtesy of forecast.io.

Closest aviation weather report (METAR) to Hendershot Airport

Closest report is Greater Rochester International Airport, 12.3 nm (22.8 km) SSE. Retrieved 2019/12/05 16:34 UTC (21 minutes ago):

KROC 051634Z 32009KT 2 1/2SM -SN BKN010 BKN033 OVC047 M01/M03 A2984

Closest aviation forecast (TAF) to Hendershot Airport

Closest forecast is Greater Rochester International Airport, 12.3 nm (22.8 km) SSE. Retrieved 2019/12/05 12:36 UTC (4 hours ago):

TAF KROC 051133Z 0512/0612 29015G20KT P6SM -SN SCT045 OVC060 TEMPO 0512/0515 4SM -SN OVC025 FM051500 28015G25KT P6SM VCSH BKN030 FM052000 28017G28KT P6SM BKN045 FM060300 26008KT P6SM BKN060 FM060800 22005KT P6SM OVC030 FM061000 19004KT 4SM -SN BR OVC020